Time;durP1;ratioP1;P1;durP2;ratioP2;P2;SDS_P1;SDS_P2;PMS_P1;PMS_P2;Temp;Humidity;BMP_temperature;BMP_pressure;BME280_temperature;BME280_humidity;BME280_pressure;Samples;Min_cycle;Max_cycle;Signal;HPM_P1;HPM_P2
2022/05/09 00:01:35;;;;;;;6.33;2.40;;;11.60;99.90;;;;;;5049506;28;20506;-76
2022/05/09 00:04:04;;;;;;;5.43;2.60;;;11.60;99.90;;;;;;5051648;28;20502;-76
2022/05/09 00:06:30;;;;;;;4.33;2.67;;;11.60;99.90;;;;;;5052579;28;20482;-77
2022/05/09 00:08:57;;;;;;;3.03;2.13;;;11.50;99.90;;;;;;5053471;28;20480;-77
2022/05/09 00:11:25;;;;;;;3.20;2.43;;;11.60;99.90;;;;;;5054133;28;20608;-77
2022/05/09 00:13:53;;;;;;;3.90;2.30;;;11.70;99.90;;;;;;5054464;28;20434;-76
2022/05/09 00:16:20;;;;;;;3.40;2.70;;;11.80;99.90;;;;;;5060384;28;20476;-77
2022/05/09 00:18:48;;;;;;;6.63;2.80;;;11.90;99.90;;;;;;5050972;28;20802;-77
2022/05/09 00:21:16;;;;;;;4.63;2.93;;;11.80;99.90;;;;;;5049128;28;20468;-77
2022/05/09 00:23:42;;;;;;;3.20;2.40;;;11.80;99.90;;;;;;5050050;28;20446;-77
2022/05/09 00:26:09;;;;;;;8.63;3.20;;;11.90;99.90;;;;;;5055719;28;20465;-77
2022/05/09 00:28:36;;;;;;;6.70;5.43;;;11.80;99.90;;;;;;5054520;28;20459;-77
2022/05/09 00:31:03;;;;;;;2.10;1.90;;;11.80;99.90;;;;;;5047533;28;20504;-77
2022/05/09 00:33:32;;;;;;;4.33;2.80;;;11.70;99.90;;;;;;5051788;28;20522;-76
2022/05/09 00:35:59;;;;;;;2.97;2.33;;;11.70;99.90;;;;;;5047693;28;20464;-77
2022/05/09 00:38:28;;;;;;;2.70;2.23;;;11.70;99.90;;;;;;5048186;28;20584;-77
2022/05/09 00:43:40;;;;;;;8.33;3.87;;;11.50;99.90;;;;;;5054993;28;20514;-77
2022/05/09 00:46:08;;;;;;;5.27;2.50;;;11.50;99.90;;;;;;5062264;28;20801;-76
2022/05/09 00:48:35;;;;;;;6.67;3.00;;;11.40;99.90;;;;;;5051626;28;20434;-77
2022/05/09 00:51:03;;;;;;;6.43;3.23;;;11.40;99.90;;;;;;5051694;28;20454;-77
2022/05/09 00:53:33;;;;;;;2.67;2.27;;;11.40;99.90;;;;;;5052676;28;20904;-76
2022/05/09 00:56:05;;;;;;;7.20;2.43;;;11.40;99.90;;;;;;5050588;28;20464;-76
2022/05/09 00:58:36;;;;;;;7.30;3.43;;;11.40;99.90;;;;;;5054214;28;20465;-76
2022/05/09 01:01:04;;;;;;;25.13;5.70;;;11.30;99.90;;;;;;5051778;28;20450;-76
2022/05/09 01:03:37;;;;;;;3.13;2.77;;;11.30;99.90;;;;;;5053362;28;20540;-78
2022/05/09 01:06:05;;;;;;;2.83;2.43;;;11.30;99.90;;;;;;5052608;28;20433;-76
2022/05/09 01:08:33;;;;;;;4.90;2.70;;;11.20;99.90;;;;;;5053842;28;21373;-75
2022/05/09 01:11:03;;;;;;;2.73;2.37;;;11.10;99.90;;;;;;5050601;28;21017;-76
2022/05/09 01:13:33;;;;;;;4.67;2.17;;;11.00;99.90;;;;;;5053164;28;20459;-77
2022/05/09 01:16:01;;;;;;;4.23;2.07;;;10.80;99.90;;;;;;5049835;28;20459;-77
2022/05/09 01:18:28;;;;;;;7.13;2.90;;;10.70;99.90;;;;;;5051964;28;20501;-77
2022/05/09 01:20:55;;;;;;;5.50;2.70;;;10.70;99.90;;;;;;5054843;28;20450;-76
2022/05/09 01:23:24;;;;;;;3.93;2.87;;;10.70;99.90;;;;;;5055286;28;20437;-77
2022/05/09 01:25:52;;;;;;;4.00;2.83;;;10.70;99.90;;;;;;5059654;28;20916;-77
2022/05/09 01:28:19;;;;;;;2.73;2.33;;;10.70;99.90;;;;;;5053049;28;20597;-77
2022/05/09 01:30:54;;;;;;;3.23;2.83;;;10.60;99.90;;;;;;5053523;28;20479;-77
2022/05/09 01:33:25;;;;;;;2.67;2.47;;;10.60;99.90;;;;;;5058852;28;20515;-77
2022/05/09 01:35:55;;;;;;;3.10;2.83;;;10.60;99.90;;;;;;5052293;28;20462;-77
2022/05/09 01:38:29;;;;;;;7.63;2.97;;;10.60;99.90;;;;;;5049332;28;20536;-77
2022/05/09 01:40:56;;;;;;;9.57;3.00;;;10.70;99.90;;;;;;5051310;28;20510;-77
2022/05/09 01:43:33;;;;;;;4.57;2.40;;;10.70;99.90;;;;;;5054993;28;20516;-77
2022/05/09 01:46:00;;;;;;;6.77;2.70;;;10.80;99.90;;;;;;5051225;28;20430;-76
2022/05/09 01:51:11;;;;;;;4.83;4.17;;;10.80;99.90;;;;;;5051125;28;20460;-77
2022/05/09 01:53:39;;;;;;;5.70;3.03;;;10.90;99.90;;;;;;5051897;28;21836;-76
2022/05/09 01:56:06;;;;;;;5.00;3.40;;;10.90;99.90;;;;;;5052901;28;20455;-77
2022/05/09 01:58:33;;;;;;;2.90;2.27;;;11.00;99.90;;;;;;5055156;28;20489;-77
2022/05/09 02:00:59;;;;;;;3.73;2.73;;;11.00;99.90;;;;;;5048365;28;20514;-76
2022/05/09 02:03:26;;;;;;;5.23;2.50;;;11.00;99.90;;;;;;5048666;28;20511;-77
2022/05/09 02:05:53;;;;;;;3.30;2.40;;;11.00;99.90;;;;;;5047047;28;20438;-77
2022/05/09 02:08:19;;;;;;;3.37;1.93;;;11.10;99.90;;;;;;5057215;28;20450;-77
2022/05/09 02:10:47;;;;;;;11.20;2.70;;;11.10;99.90;;;;;;5054097;28;20483;-77
2022/05/09 02:13:14;;;;;;;12.63;2.83;;;11.20;99.90;;;;;;5047672;28;20442;-77
2022/05/09 02:15:41;;;;;;;7.50;3.00;;;11.30;99.90;;;;;;5050022;28;20439;-77
2022/05/09 02:18:07;;;;;;;5.80;3.07;;;11.30;99.90;;;;;;5051433;28;20536;-77
2022/05/09 02:20:34;;;;;;;4.60;2.70;;;11.30;99.90;;;;;;5050847;28;20599;-77
2022/05/09 02:23:01;;;;;;;8.30;2.70;;;11.20;99.90;;;;;;5047246;28;20463;-77
2022/05/09 02:25:29;;;;;;;2.90;2.00;;;11.00;99.90;;;;;;5050972;28;20856;-77
2022/05/09 02:27:57;;;;;;;2.97;2.67;;;11.00;99.90;;;;;;5053033;28;20526;-76
2022/05/09 02:30:24;;;;;;;4.13;2.80;;;11.10;99.90;;;;;;5056612;28;20552;-77
2022/05/09 02:32:52;;;;;;;5.30;2.93;;;11.10;99.90;;;;;;5061183;28;20462;-77
2022/05/09 02:35:20;;;;;;;4.63;2.67;;;11.10;99.90;;;;;;5054102;28;20433;-77
2022/05/09 02:37:47;;;;;;;4.47;3.73;;;11.20;99.90;;;;;;5057058;28;20458;-77
2022/05/09 02:40:14;;;;;;;3.30;2.37;;;11.20;99.90;;;;;;5050621;28;20487;-77
2022/05/09 02:42:41;;;;;;;3.27;2.53;;;11.20;99.90;;;;;;5056113;28;20437;-77
2022/05/09 02:45:10;;;;;;;9.53;4.93;;;11.10;99.90;;;;;;5051042;28;20480;-77
2022/05/09 02:47:40;;;;;;;4.07;3.20;;;11.00;99.90;;;;;;5057473;28;20736;-77
2022/05/09 02:50:08;;;;;;;5.97;2.90;;;11.00;99.90;;;;;;5062222;28;20571;-77
2022/05/09 02:52:36;;;;;;;4.97;2.60;;;10.90;99.90;;;;;;5060914;28;20567;-77
2022/05/09 02:55:05;;;;;;;4.33;2.20;;;10.90;99.90;;;;;;5051392;28;20430;-76
2022/05/09 02:57:32;;;;;;;5.63;2.43;;;10.90;99.90;;;;;;5050945;28;20485;-76
2022/05/09 02:59:59;;;;;;;6.13;3.37;;;10.80;99.90;;;;;;5052650;28;23347;-76
2022/05/09 03:02:27;;;;;;;9.07;3.60;;;10.80;99.90;;;;;;5058059;28;20456;-78
2022/05/09 03:04:53;;;;;;;3.70;2.33;;;10.80;99.90;;;;;;5060137;28;20477;-76
2022/05/09 03:07:21;;;;;;;3.07;2.30;;;10.80;99.90;;;;;;5051353;28;20452;-75
2022/05/09 03:09:52;;;;;;;4.20;2.73;;;10.70;99.90;;;;;;5054415;28;20490;-76
2022/05/09 03:12:19;;;;;;;7.53;3.20;;;10.70;99.90;;;;;;5058694;28;20674;-78
2022/05/09 03:14:47;;;;;;;3.87;2.83;;;10.60;99.90;;;;;;5062405;28;20438;-76
2022/05/09 03:17:14;;;;;;;5.50;2.70;;;10.60;99.90;;;;;;5045735;28;21140;-77
2022/05/09 03:19:43;;;;;;;3.30;2.60;;;10.50;99.90;;;;;;5050006;28;20450;-77
2022/05/09 03:22:10;;;;;;;4.57;3.10;;;10.50;99.90;;;;;;5046105;28;20532;-77
2022/05/09 03:24:37;;;;;;;5.60;3.80;;;10.50;99.90;;;;;;5048306;28;20455;-77
2022/05/09 03:27:06;;;;;;;4.50;2.90;;;10.50;99.90;;;;;;5056102;28;20465;-77
2022/05/09 03:29:34;;;;;;;4.03;2.80;;;10.60;99.90;;;;;;5057224;28;21352;-77
2022/05/09 03:32:00;;;;;;;9.10;2.67;;;10.50;99.90;;;;;;5051698;28;20450;-77
2022/05/09 03:34:28;;;;;;;6.53;2.73;;;10.50;99.90;;;;;;5053543;28;20516;-77
2022/05/09 03:36:56;;;;;;;3.87;2.97;;;10.50;99.90;;;;;;5049321;28;20437;-77
2022/05/09 03:39:22;;;;;;;7.60;2.37;;;10.50;99.90;;;;;;5055891;28;21068;-77
2022/05/09 03:41:50;;;;;;;4.47;2.23;;;10.50;99.90;;;;;;5054409;28;20425;-77
2022/05/09 03:44:17;;;;;;;3.17;2.87;;;10.50;99.90;;;;;;5041221;28;20882;-76
2022/05/09 03:46:48;;;;;;;3.30;2.50;;;10.50;99.90;;;;;;5047234;28;20463;-76
2022/05/09 03:49:15;;;;;;;3.83;2.97;;;10.50;99.90;;;;;;5054925;28;20438;-76
2022/05/09 03:51:41;;;;;;;5.73;3.63;;;10.40;99.90;;;;;;5051275;28;20498;-77
2022/05/09 03:54:10;;;;;;;4.77;3.00;;;10.50;99.90;;;;;;5048041;28;20565;-77
2022/05/09 03:56:36;;;;;;;5.53;2.70;;;10.50;99.90;;;;;;5056250;28;20454;-78
2022/05/09 03:59:03;;;;;;;5.17;2.70;;;10.40;99.90;;;;;;5059889;28;20464;-77
2022/05/09 04:01:31;;;;;;;3.60;2.90;;;10.50;99.90;;;;;;5049429;28;20544;-78
2022/05/09 04:03:59;;;;;;;3.93;2.27;;;10.50;99.90;;;;;;5050511;28;20872;-78
2022/05/09 04:06:26;;;;;;;5.97;2.90;;;10.40;99.90;;;;;;5056360;28;20829;-78
2022/05/09 04:08:52;;;;;;;5.93;3.00;;;10.30;99.90;;;;;;5053508;28;20518;-78
2022/05/09 04:11:20;;;;;;;6.93;3.07;;;10.40;99.90;;;;;;5056431;28;21088;-78
2022/05/09 04:13:47;;;;;;;2.97;2.37;;;10.40;99.90;;;;;;5052397;28;20532;-78
2022/05/09 04:18:59;;;;;;;3.33;2.20;;;10.40;99.90;;;;;;5042249;28;20437;-77
2022/05/09 04:21:26;;;;;;;7.23;2.20;;;10.40;99.90;;;;;;5040947;28;20792;-77
2022/05/09 04:23:56;;;;;;;16.93;3.00;;;10.40;99.90;;;;;;5046582;28;20971;-76
2022/05/09 04:26:27;;;;;;;5.87;3.30;;;10.30;99.90;;;;;;5048903;28;20462;-76
2022/05/09 04:28:54;;;;;;;9.33;2.43;;;10.30;99.90;;;;;;5048407;28;20463;-77
2022/05/09 04:31:22;;;;;;;8.47;3.30;;;10.30;99.90;;;;;;5052670;28;20519;-76
2022/05/09 04:33:49;;;;;;;11.73;4.13;;;10.20;99.90;;;;;;5054918;28;20520;-77
2022/05/09 04:36:16;;;;;;;3.27;2.40;;;10.10;99.90;;;;;;5052044;28;20486;-77
2022/05/09 04:38:43;;;;;;;7.33;2.57;;;10.20;99.90;;;;;;5051554;28;20487;-77
2022/05/09 04:41:13;;;;;;;9.10;3.77;;;10.20;99.90;;;;;;5064294;28;20479;-75
2022/05/09 04:43:41;;;;;;;4.83;3.20;;;10.40;99.90;;;;;;5062727;28;20534;-77
2022/05/09 04:46:07;;;;;;;5.90;2.30;;;10.50;99.90;;;;;;5056107;28;20466;-77
2022/05/09 04:48:34;;;;;;;4.17;3.87;;;10.50;99.90;;;;;;5063588;28;20474;-77
2022/05/09 04:51:01;;;;;;;4.87;2.63;;;10.60;99.90;;;;;;5062340;28;20513;-77
2022/05/09 04:53:28;;;;;;;5.67;4.40;;;10.70;99.90;;;;;;5065256;28;20429;-76
2022/05/09 04:55:56;;;;;;;4.80;3.67;;;10.70;99.90;;;;;;5060768;28;20548;-76
2022/05/09 04:58:22;;;;;;;2.33;2.00;;;10.70;99.90;;;;;;5065402;28;20425;-76
2022/05/09 05:00:51;;;;;;;6.40;2.87;;;11.00;99.90;;;;;;5061827;28;20562;-77
2022/05/09 05:03:17;;;;;;;4.37;3.30;;;11.30;99.90;;;;;;5052405;28;20848;-78
2022/05/09 05:05:44;;;;;;;3.07;2.37;;;11.50;99.90;;;;;;5056642;28;20895;-78
2022/05/09 05:08:13;;;;;;;14.30;3.50;;;11.70;99.90;;;;;;5059552;28;20454;-78
2022/05/09 05:10:40;;;;;;;7.03;3.50;;;11.70;99.90;;;;;;5062920;28;20486;-78
2022/05/09 05:13:06;;;;;;;4.87;3.67;;;11.70;99.90;;;;;;5058819;28;20466;-78
2022/05/09 05:15:33;;;;;;;31.30;4.67;;;12.10;99.90;;;;;;5053695;28;20426;-79
2022/05/09 05:18:02;;;;;;;10.80;3.10;;;12.10;99.90;;;;;;5061990;28;20471;-78
2022/05/09 05:20:29;;;;;;;3.37;2.77;;;12.10;99.90;;;;;;5056822;28;20479;-78
2022/05/09 05:22:56;;;;;;;4.30;3.10;;;12.30;99.90;;;;;;5059937;28;20462;-77
2022/05/09 05:25:26;;;;;;;3.33;2.63;;;12.60;99.90;;;;;;5057991;28;20468;-78
2022/05/09 05:27:53;;;;;;;4.20;2.77;;;12.90;99.90;;;;;;5055658;28;20481;-79
2022/05/09 05:30:20;;;;;;;3.70;2.67;;;13.10;99.90;;;;;;5054044;28;20474;-79
2022/05/09 05:32:48;;;;;;;5.23;3.10;;;13.30;99.90;;;;;;5052674;28;20454;-79
2022/05/09 05:35:20;;;;;;;8.27;3.60;;;13.60;99.90;;;;;;5058514;28;20622;-80
2022/05/09 05:37:46;;;;;;;4.00;2.30;;;13.50;99.90;;;;;;5056142;28;20459;-78
2022/05/09 05:40:14;;;;;;;6.77;3.40;;;13.80;99.90;;;;;;5057204;28;20479;-80
2022/05/09 05:42:42;;;;;;;7.30;3.50;;;14.10;99.90;;;;;;5057939;28;20469;-78
2022/05/09 05:45:11;;;;;;;6.00;2.90;;;14.30;99.90;;;;;;5053636;28;20462;-78
2022/05/09 05:47:38;;;;;;;7.03;2.77;;;14.70;99.90;;;;;;5050154;28;20463;-78
2022/05/09 05:50:08;;;;;;;4.60;2.60;;;14.90;99.90;;;;;;5055969;28;20788;-79
2022/05/09 05:52:36;;;;;;;3.97;2.50;;;15.40;99.90;;;;;;5049079;28;20490;-79
2022/05/09 05:55:03;;;;;;;5.73;4.03;;;15.50;99.90;;;;;;5061615;28;20463;-79
2022/05/09 05:57:33;;;;;;;3.20;2.70;;;15.50;99.90;;;;;;5058771;28;20452;-79
2022/05/09 06:00:02;;;;;;;10.80;4.27;;;15.50;99.90;;;;;;5055159;28;20478;-78
2022/05/09 06:02:29;;;;;;;3.67;3.10;;;15.70;99.90;;;;;;5052766;28;20451;-78
2022/05/09 06:04:56;;;;;;;3.10;2.50;;;15.20;99.90;;;;;;5057287;28;20452;-78
2022/05/09 06:07:23;;;;;;;5.20;3.10;;;14.90;99.90;;;;;;5058513;28;20460;-78
2022/05/09 06:09:53;;;;;;;5.83;2.90;;;14.80;99.90;;;;;;5055020;28;20927;-79
2022/05/09 06:12:22;;;;;;;3.80;2.70;;;14.90;99.90;;;;;;5058461;28;20552;-78
2022/05/09 06:15:24;;;;;;;4.57;3.33;;;15.40;99.90;;;;;;5056530;28;20466;-77
2022/05/09 06:17:37;;;;;;;6.80;3.60;;;15.30;99.90;;;;;;5050825;28;20451;-79
2022/05/09 06:20:05;;;;;;;23.10;3.73;;;15.40;99.90;;;;;;5052611;28;20490;-80
2022/05/09 06:22:32;;;;;;;8.87;3.20;;;15.90;99.90;;;;;;5057220;28;20562;-79
2022/05/09 06:25:01;;;;;;;6.20;3.80;;;16.20;99.90;;;;;;5054855;28;20467;-79
2022/05/09 06:27:28;;;;;;;5.77;3.20;;;16.50;99.90;;;;;;5057720;28;20545;-80
2022/05/09 06:29:55;;;;;;;6.40;3.50;;;17.20;99.90;;;;;;5048852;28;20510;-78
2022/05/09 06:32:25;;;;;;;6.13;3.20;;;17.40;99.90;;;;;;5054432;28;20480;-79
2022/05/09 06:34:53;;;;;;;6.20;3.10;;;17.70;99.90;;;;;;5050945;28;20456;-77
2022/05/09 06:37:20;;;;;;;4.53;3.67;;;18.10;99.90;;;;;;5055393;28;20902;-79
2022/05/09 06:39:52;;;;;;;4.00;2.97;;;18.00;99.90;;;;;;5052550;28;20532;-78
2022/05/09 06:42:20;;;;;;;10.70;4.83;;;18.10;99.90;;;;;;5056485;28;20451;-78
2022/05/09 06:44:47;;;;;;;20.63;3.33;;;18.10;99.90;;;;;;5047635;28;20472;-78
2022/05/09 06:47:14;;;;;;;6.20;3.13;;;18.50;99.90;;;;;;5053004;28;20513;-78
2022/05/09 06:49:43;;;;;;;11.77;4.17;;;18.70;99.90;;;;;;5053909;28;21021;-78
2022/05/09 06:52:09;;;;;;;5.97;3.00;;;18.80;99.90;;;;;;5055942;28;20538;-78
2022/05/09 06:54:36;;;;;;;6.13;3.40;;;19.00;99.90;;;;;;5059605;28;20452;-77
2022/05/09 06:57:04;;;;;;;7.37;3.80;;;19.40;99.90;;;;;;5057703;28;20472;-78
2022/05/09 06:59:33;;;;;;;5.97;3.10;;;19.40;99.90;;;;;;5049639;28;20461;-78
2022/05/09 07:02:00;;;;;;;7.73;4.07;;;19.60;99.90;;;;;;5054892;28;20490;-78
2022/05/09 07:04:27;;;;;;;4.63;3.50;;;19.40;99.90;;;;;;5058992;28;20492;-77
2022/05/09 07:06:54;;;;;;;5.30;3.63;;;20.00;99.90;;;;;;5052860;28;20464;-78
2022/05/09 07:09:20;;;;;;;5.10;3.37;;;19.80;99.90;;;;;;5056504;28;20464;-78
2022/05/09 07:11:48;;;;;;;4.23;3.27;;;20.20;99.90;;;;;;5059928;28;21094;-78
2022/05/09 07:14:14;;;;;;;5.23;2.90;;;20.40;99.90;;;;;;5055915;28;20499;-78
2022/05/09 07:16:42;;;;;;;11.13;3.70;;;21.10;99.90;;;;;;5054427;28;20491;-78
2022/05/09 07:19:09;;;;;;;7.93;3.50;;;21.60;99.90;;;;;;5059803;28;20455;-78
2022/05/09 07:21:35;;;;;;;4.80;3.33;;;22.10;99.30;;;;;;5057919;28;21004;-79
2022/05/09 07:24:02;;;;;;;8.27;3.60;;;22.10;97.30;;;;;;5060026;28;20884;-79
2022/05/09 07:26:29;;;;;;;6.40;3.57;;;21.60;98.90;;;;;;5057359;28;20475;-79
2022/05/09 07:28:55;;;;;;;5.20;3.23;;;21.90;98.50;;;;;;5056654;28;20465;-79
2022/05/09 07:31:22;;;;;;;8.00;3.20;;;22.20;96.90;;;;;;5052634;28;20558;-79
2022/05/09 07:33:50;;;;;;;6.37;3.80;;;22.40;97.20;;;;;;5054408;28;20475;-79
2022/05/09 07:36:17;;;;;;;5.90;3.70;;;23.10;96.60;;;;;;5060239;28;21042;-79
2022/05/09 07:38:44;;;;;;;3.40;2.80;;;23.30;95.10;;;;;;5062129;28;20864;-79
2022/05/09 07:41:11;;;;;;;7.13;3.83;;;23.40;94.20;;;;;;5059909;28;20492;-79
2022/05/09 07:43:37;;;;;;;16.53;3.43;;;23.30;94.00;;;;;;5058266;28;20507;-79
2022/05/09 07:46:04;;;;;;;12.00;3.90;;;23.50;95.70;;;;;;5058065;28;20858;-78
2022/05/09 07:48:31;;;;;;;6.50;4.23;;;23.60;95.20;;;;;;5058705;28;20502;-78
2022/05/09 07:51:00;;;;;;;3.87;2.83;;;23.70;93.80;;;;;;5059389;28;20578;-78
2022/05/09 07:53:30;;;;;;;6.00;4.07;;;23.50;93.50;;;;;;5062266;28;21057;-78
2022/05/09 07:55:57;;;;;;;5.10;3.60;;;23.60;94.00;;;;;;5063758;28;20543;-78
2022/05/09 07:58:24;;;;;;;3.80;2.90;;;24.30;92.50;;;;;;5065511;28;20515;-78
2022/05/09 08:00:52;;;;;;;8.90;3.93;;;24.10;92.10;;;;;;5055894;28;20485;-78
2022/05/09 08:03:20;;;;;;;5.27;3.47;;;24.60;91.90;;;;;;5056714;28;21459;-78
2022/05/09 08:05:47;;;;;;;4.40;2.97;;;24.70;92.60;;;;;;5058035;28;20450;-79
2022/05/09 08:08:15;;;;;;;5.87;3.10;;;25.00;91.50;;;;;;5056997;28;20566;-79
2022/05/09 08:10:43;;;;;;;6.63;3.17;;;25.90;90.20;;;;;;5056018;28;20889;-79
2022/05/09 08:13:12;;;;;;;8.87;3.80;;;26.10;91.10;;;;;;5055475;28;20561;-79
2022/05/09 08:15:39;;;;;;;8.80;4.10;;;26.20;86.80;;;;;;5056187;28;20585;-78
2022/05/09 08:18:06;;;;;;;9.67;3.40;;;26.20;88.20;;;;;;5053483;28;20465;-78
2022/05/09 08:20:35;;;;;;;5.13;3.10;;;25.90;89.50;;;;;;5058110;28;20482;-78
2022/05/09 08:23:05;;;;;;;9.23;3.13;;;26.00;85.50;;;;;;5059536;28;20457;-78
2022/05/09 08:25:36;;;;;;;7.97;4.20;;;25.80;86.50;;;;;;5059722;28;20970;-78
2022/05/09 08:28:03;;;;;;;5.33;3.40;;;26.20;87.00;;;;;;5055298;28;21109;-78
2022/05/09 08:30:32;;;;;;;4.13;3.60;;;26.70;85.30;;;;;;5059998;28;20542;-78
2022/05/09 08:32:59;;;;;;;6.67;3.70;;;26.70;85.60;;;;;;5058109;28;20477;-79
2022/05/09 08:35:26;;;;;;;4.20;3.60;;;26.70;83.90;;;;;;5056296;28;20461;-78
2022/05/09 08:37:53;;;;;;;9.00;3.13;;;26.70;84.40;;;;;;5057238;28;20474;-78
2022/05/09 08:40:33;;;;;;;6.80;3.50;;;26.00;85.60;;;;;;5052392;28;20473;-79
2022/05/09 08:43:11;;;;;;;8.47;3.30;;;26.70;86.40;;;;;;5054320;28;20995;-78
2022/05/09 08:45:41;;;;;;;4.57;3.10;;;26.70;86.00;;;;;;5060556;28;20468;-78
2022/05/09 08:48:25;;;;;;;5.90;3.30;;;28.20;84.40;;;;;;5059733;28;20456;-78
2022/05/09 08:51:03;;;;;;;4.07;3.67;;;29.10;81.20;;;;;;5058708;28;20547;-78
2022/05/09 08:53:34;;;;;;;7.43;3.90;;;29.30;75.70;;;;;;5055184;28;20477;-78
2022/05/09 08:56:01;;;;;;;6.70;4.30;;;29.20;75.90;;;;;;5059540;28;20476;-78
2022/05/09 08:58:39;;;;;;;11.37;3.80;;;28.30;78.40;;;;;;5048746;28;20555;-78
2022/05/09 09:01:13;;;;;;;4.87;3.77;;;28.30;79.40;;;;;;5051416;28;20480;-78
2022/05/09 09:03:45;;;;;;;4.87;4.30;;;28.40;78.80;;;;;;5054907;28;20537;-78
2022/05/09 09:06:37;;;;;;;5.70;3.70;;;29.20;77.40;;;;;;5058259;28;20480;-79
2022/05/09 09:09:10;;;;;;;3.90;3.50;;;29.70;77.10;;;;;;5061120;28;20562;-78
2022/05/09 09:11:47;;;;;;;4.77;4.17;;;30.10;75.40;;;;;;5057447;28;21346;-79
2022/05/09 09:14:21;;;;;;;7.27;3.90;;;30.40;78.00;;;;;;5059593;28;20484;-78
2022/05/09 09:17:02;;;;;;;5.30;3.60;;;30.70;71.00;;;;;;5055857;28;20491;-78
2022/05/09 09:20:07;;;;;;;7.90;4.17;;;31.00;72.00;;;;;;5056399;28;20491;-78
2022/05/09 09:22:50;;;;;;;5.53;4.87;;;30.90;71.80;;;;;;5051865;28;20523;-77
2022/05/09 09:25:38;;;;;;;5.50;4.60;;;30.80;68.30;;;;;;5056849;28;20476;-77
2022/05/09 09:28:10;;;;;;;5.67;3.60;;;30.70;71.50;;;;;;5055920;28;20458;-77
2022/05/09 09:30:40;;;;;;;4.40;3.50;;;31.00;68.40;;;;;;5057606;28;20480;-77
2022/05/09 09:33:09;;;;;;;8.00;4.27;;;30.10;68.90;;;;;;5053353;28;20501;-77
2022/05/09 09:35:45;;;;;;;8.00;4.57;;;29.70;69.80;;;;;;5061332;28;20461;-78
2022/05/09 09:38:19;;;;;;;7.70;4.63;;;30.20;68.20;;;;;;5056660;28;20550;-77
2022/05/09 09:40:46;;;;;;;8.53;4.70;;;30.10;68.80;;;;;;5053990;28;20500;-78
2022/05/09 09:43:13;;;;;;;5.80;4.33;;;30.20;71.00;;;;;;5055561;28;20577;-78
2022/05/09 09:45:46;;;;;;;9.07;5.63;;;30.10;69.80;;;;;;5059759;28;20469;-78
2022/05/09 09:48:15;;;;;;;8.77;5.13;;;30.20;71.40;;;;;;5057406;28;20466;-78
2022/05/09 09:50:55;;;;;;;4.70;4.20;;;30.50;68.80;;;;;;5060268;28;20833;-78
2022/05/09 09:53:35;;;;;;;6.40;4.60;;;30.80;68.70;;;;;;5057021;28;20569;-78
2022/05/09 09:56:06;;;;;;;7.50;4.93;;;31.10;67.30;;;;;;5053764;28;20469;-78
2022/05/09 09:58:33;;;;;;;9.13;5.50;;;31.40;67.90;;;;;;5057214;28;20545;-77
2022/05/09 10:01:12;;;;;;;5.77;5.10;;;32.10;65.50;;;;;;5053527;28;20485;-78
2022/05/09 10:03:42;;;;;;;7.27;4.17;;;32.50;61.80;;;;;;5053785;28;20453;-78
2022/05/09 10:06:24;;;;;;;4.87;4.30;;;31.80;62.80;;;;;;5054577;28;20461;-78
2022/05/09 10:08:58;;;;;;;5.40;4.20;;;31.80;62.10;;;;;;5055325;28;20594;-77
2022/05/09 10:11:28;;;;;;;9.37;4.30;;;31.90;63.00;;;;;;5055312;28;20488;-77
2022/05/09 10:13:57;;;;;;;8.60;5.37;;;31.50;61.20;;;;;;5052536;28;20484;-77
2022/05/09 10:16:30;;;;;;;6.73;5.00;;;31.20;65.10;;;;;;5050980;28;20457;-78
2022/05/09 10:18:58;;;;;;;10.50;5.27;;;32.00;62.10;;;;;;5053568;28;20453;-78
2022/05/09 10:27:04;;;;;;;6.37;4.23;;;32.20;60.80;;;;;;5050591;28;20514;-78
2022/05/09 10:29:35;;;;;;;4.80;4.40;;;31.80;61.80;;;;;;5055747;28;20511;-77
2022/05/09 10:32:08;;;;;;;6.53;4.90;;;31.40;62.40;;;;;;5051530;28;20461;-77
2022/05/09 10:34:43;;;;;;;6.53;4.70;;;31.20;61.70;;;;;;5053212;28;20480;-77
2022/05/09 10:37:18;;;;;;;8.73;4.70;;;32.00;62.20;;;;;;5058254;28;20453;-77
2022/05/09 10:39:51;;;;;;;8.70;5.23;;;32.20;63.50;;;;;;5053502;28;20476;-77
2022/05/09 10:42:32;;;;;;;5.70;5.00;;;33.00;59.90;;;;;;5062584;28;20446;-77
2022/05/09 10:45:06;;;;;;;8.57;5.10;;;33.00;59.50;;;;;;5056394;28;20493;-77
2022/05/09 10:47:41;;;;;;;7.87;5.43;;;33.00;59.10;;;;;;5050099;28;20567;-78
2022/05/09 10:50:15;;;;;;;8.63;4.60;;;33.80;59.20;;;;;;5058367;28;21216;-77
2022/05/09 10:52:48;;;;;;;7.53;5.37;;;33.80;59.10;;;;;;5058579;28;20591;-77
2022/05/09 10:55:21;;;;;;;4.43;4.03;;;32.60;58.90;;;;;;5058707;28;21119;-77
2022/05/09 10:58:03;;;;;;;4.70;3.97;;;31.90;59.80;;;;;;5052123;28;20746;-77
2022/05/09 11:00:38;;;;;;;10.93;5.33;;;32.50;62.80;;;;;;5057176;28;20479;-77
2022/05/09 11:03:17;;;;;;;10.47;4.50;;;33.70;58.60;;;;;;5048769;28;20460;-77
2022/05/09 11:06:00;;;;;;;25.33;7.40;;;34.10;56.70;;;;;;5060249;28;20465;-77
2022/05/09 11:08:35;;;;;;;8.63;4.73;;;33.60;57.30;;;;;;5063254;28;20464;-78
2022/05/09 11:11:11;;;;;;;5.57;4.70;;;33.00;58.10;;;;;;5061067;28;20535;-78
2022/05/09 11:13:51;;;;;;;8.27;4.77;;;32.20;58.30;;;;;;5061835;28;20488;-78
2022/05/09 11:16:28;;;;;;;8.03;4.97;;;32.40;58.90;;;;;;5058035;28;20888;-78
2022/05/09 11:19:29;;;;;;;6.07;4.37;;;33.20;58.80;;;;;;5075556;22;20497;-77
2022/05/09 11:22:13;;;;;;;9.23;4.87;;;34.20;58.30;;;;;;5017613;28;20572;-76
2022/05/09 11:25:26;;;;;;;9.37;4.67;;;34.60;56.30;;;;;;5019909;28;20829;-76
2022/05/09 11:28:14;;;;;;;6.20;5.00;;;35.10;56.20;;;;;;5011807;28;20548;-76
2022/05/09 11:30:48;;;;;;;5.93;4.17;;;35.30;55.10;;;;;;5006441;28;20574;-76
2022/05/09 11:33:38;;;;;;;7.63;5.00;;;35.60;54.70;;;;;;5011591;28;20458;-77
2022/05/09 11:36:34;;;;;;;7.00;5.03;;;34.90;54.50;;;;;;5013888;28;20470;-77
2022/05/09 11:39:10;;;;;;;7.13;5.10;;;35.20;54.50;;;;;;5009582;28;20570;-77
2022/05/09 11:41:43;;;;;;;4.10;3.70;;;35.00;54.10;;;;;;5015466;28;20459;-77
2022/05/09 11:44:16;;;;;;;6.17;5.13;;;34.60;53.70;;;;;;5010900;28;20830;-77
2022/05/09 11:47:24;;;;;;;5.40;4.40;;;34.80;53.20;;;;;;5008201;28;20465;-77
2022/05/09 11:50:08;;;;;;;5.83;4.43;;;35.00;52.70;;;;;;5007469;28;20892;-77
2022/05/09 11:52:44;;;;;;;9.13;3.70;;;35.30;52.70;;;;;;5012107;28;20534;-77
2022/05/09 11:55:18;;;;;;;4.23;3.83;;;35.50;53.50;;;;;;5013434;28;20495;-77
2022/05/09 11:57:49;;;;;;;8.20;4.53;;;35.10;52.80;;;;;;5007186;28;20972;-77
2022/05/09 12:00:47;;;;;;;6.73;4.23;;;33.10;54.10;;;;;;5009766;28;20785;-77
2022/05/09 12:03:16;;;;;;;5.40;4.70;;;32.90;56.20;;;;;;5009777;28;20541;-77
2022/05/09 12:06:00;;;;;;;9.30;5.60;;;32.80;53.80;;;;;;5008708;28;20493;-76
2022/05/09 12:08:56;;;;;;;5.07;4.53;;;32.20;55.50;;;;;;5011312;28;20805;-75
2022/05/09 12:11:32;;;;;;;5.00;4.50;;;31.30;56.00;;;;;;5009085;28;20471;-76
2022/05/09 12:14:01;;;;;;;5.70;4.67;;;31.60;56.40;;;;;;5007579;28;21020;-76
2022/05/09 12:16:52;;;;;;;5.50;4.70;;;32.70;55.60;;;;;;5012112;28;20822;-76
2022/05/09 12:19:42;;;;;;;11.77;5.63;;;33.20;54.90;;;;;;5007023;28;20548;-77
2022/05/09 12:22:37;;;;;;;5.63;4.20;;;34.30;53.40;;;;;;5008592;28;20506;-76
2022/05/09 12:25:09;;;;;;;8.27;4.23;;;35.10;53.10;;;;;;5013678;28;20455;-76
2022/05/09 12:28:02;;;;;;;8.73;4.80;;;34.00;53.00;;;;;;5014929;28;20531;-76
2022/05/09 12:30:47;;;;;;;20.70;4.83;;;33.20;53.50;;;;;;5011737;28;20870;-76
2022/05/09 12:33:40;;;;;;;6.80;4.53;;;32.20;54.70;;;;;;5004077;28;20463;-76
2022/05/09 12:36:11;;;;;;;6.60;4.50;;;31.40;55.40;;;;;;5010055;28;21055;-76
2022/05/09 12:38:40;;;;;;;8.33;5.30;;;30.50;57.30;;;;;;5009352;28;20834;-76
2022/05/09 12:41:14;;;;;;;6.90;4.80;;;30.00;58.60;;;;;;5008166;28;20553;-75
2022/05/09 12:43:45;;;;;;;5.20;4.27;;;29.80;59.60;;;;;;5007177;28;20457;-76
2022/05/09 12:46:20;;;;;;;9.83;4.23;;;30.70;58.80;;;;;;5005924;28;20467;-76
2022/05/09 12:48:46;;;;;;;7.57;4.60;;;31.00;56.50;;;;;;5009056;28;20760;-76
2022/05/09 12:51:16;;;;;;;8.10;4.47;;;31.70;56.00;;;;;;5001194;28;20972;-76
2022/05/09 12:53:49;;;;;;;5.93;4.27;;;32.70;56.10;;;;;;5004255;28;20475;-78
2022/05/09 12:56:23;;;;;;;9.10;4.43;;;33.80;55.10;;;;;;5012273;28;20510;-77
2022/05/09 12:59:01;;;;;;;8.40;4.03;;;34.30;55.60;;;;;;5009302;28;20459;-77
2022/05/09 13:01:29;;;;;;;12.07;4.37;;;34.60;53.50;;;;;;5007521;28;20573;-77
2022/05/09 13:03:57;;;;;;;4.63;3.67;;;35.00;54.30;;;;;;5009392;28;20491;-77
2022/05/09 13:06:31;;;;;;;5.50;3.80;;;35.10;51.70;;;;;;5005122;28;20454;-76
2022/05/09 13:08:58;;;;;;;4.80;3.77;;;34.50;52.50;;;;;;5010025;28;20511;-78
2022/05/09 13:11:32;;;;;;;5.53;4.20;;;34.40;53.10;;;;;;5006516;28;20463;-77
2022/05/09 13:14:09;;;;;;;5.80;4.23;;;34.80;52.60;;;;;;5013711;28;20559;-77
2022/05/09 13:16:39;;;;;;;3.53;3.23;;;35.30;55.10;;;;;;5009816;28;20456;-76
2022/05/09 13:19:16;;;;;;;3.53;3.20;;;35.70;49.90;;;;;;5003420;28;20992;-77